createdAt,value
2023-04-05T05:23:21.169Z,-0.90
2023-04-05T05:25:48.098Z,-1.90
2023-04-05T05:28:14.763Z,-2.00
2023-04-05T05:30:41.600Z,-1.90
2023-04-05T05:33:08.406Z,-1.80
2023-04-05T05:35:35.327Z,-1.70
2023-04-05T05:38:02.721Z,-1.60
2023-04-05T05:40:29.363Z,-1.50
2023-04-05T05:42:56.147Z,-1.40
2023-04-05T05:45:22.739Z,-1.20
2023-04-05T05:47:49.358Z,-1.20
2023-04-05T05:50:17.122Z,-1.10
2023-04-05T05:52:43.768Z,-1.10
2023-04-05T05:55:10.503Z,-1.10
2023-04-05T05:57:38.732Z,-1.10
2023-04-05T06:00:09.485Z,-1.00
2023-04-05T06:02:36.536Z,-0.90
2023-04-05T06:05:03.974Z,-0.90
2023-04-05T06:07:30.609Z,-0.70
2023-04-05T06:09:57.261Z,-0.70
2023-04-05T06:12:23.879Z,-0.60
2023-04-05T06:14:50.595Z,-0.60
2023-04-05T06:17:17.228Z,-0.50
2023-04-05T06:19:43.868Z,-0.50
2023-04-05T06:22:10.576Z,-0.40
2023-04-05T06:24:37.175Z,-0.30
2023-04-05T06:27:03.889Z,-0.30
2023-04-05T06:29:31.176Z,-0.20
2023-04-05T06:31:58.104Z,-0.20
2023-04-05T06:34:24.839Z,-0.10
2023-04-05T06:36:51.586Z,0.00
2023-04-05T06:39:18.851Z,0.00
2023-04-05T06:41:45.539Z,0.10
2023-04-05T06:44:12.170Z,0.20
2023-04-05T06:46:38.849Z,0.30
2023-04-05T06:51:32.646Z,0.40
2023-04-05T06:53:59.349Z,0.70
2023-04-05T06:56:26.095Z,0.60
2023-04-05T06:58:53.023Z,0.70
2023-04-05T07:01:19.902Z,0.80
2023-04-05T07:03:46.645Z,0.90
2023-04-05T07:06:13.447Z,0.90
2023-04-05T07:08:40.196Z,1.00
2023-04-05T07:11:06.903Z,1.10
2023-04-05T07:13:33.819Z,1.10
2023-04-05T08:54:28.321Z,1.30
2023-04-05T08:56:57.985Z,3.90
2023-04-05T08:59:25.475Z,3.80
2023-04-05T09:16:43.246Z,3.90
2023-04-05T09:19:10.669Z,4.30
2023-04-05T09:22:00.697Z,4.60
2023-04-05T09:24:34.913Z,4.70
2023-04-05T11:06:31.347Z,4.80
2023-04-05T11:09:00.838Z,6.30
2023-04-05T11:11:27.899Z,6.40
2023-04-05T11:13:57.233Z,6.60
2023-04-05T11:16:38.562Z,6.20
2023-04-05T11:19:05.396Z,5.80
2023-04-05T11:21:32.121Z,5.50
2023-04-05T11:24:03.596Z,5.60
2023-04-05T11:26:48.878Z,5.90
2023-04-05T11:29:16.053Z,6.10
2023-04-05T11:31:59.870Z,6.10
2023-04-05T11:34:26.708Z,6.40
2023-04-05T11:36:53.496Z,6.70
2023-04-05T11:39:21.095Z,6.80
2023-04-05T11:42:07.416Z,6.70
2023-04-05T11:44:41.183Z,6.50
2023-04-05T11:47:09.058Z,6.70
2023-04-05T11:49:36.348Z,6.80
2023-04-05T11:52:14.347Z,6.90
2023-04-05T11:54:47.501Z,6.90
2023-04-05T11:57:18.402Z,6.90
2023-04-05T11:59:45.446Z,6.90
2023-04-05T12:02:12.836Z,7.00
2023-04-05T12:04:40.571Z,7.10
2023-04-05T12:07:19.471Z,7.30
2023-04-05T12:10:04.956Z,7.20
2023-04-05T12:12:40.741Z,7.10
2023-04-05T12:15:10.621Z,7.10
2023-04-05T12:17:40.131Z,7.10
2023-04-05T12:20:07.780Z,7.10
2023-04-05T12:22:36.071Z,7.40
2023-04-05T12:25:03.080Z,7.40
2023-04-05T12:30:18.025Z,7.70
2023-04-05T12:32:48.764Z,8.10
2023-04-05T12:35:21.176Z,7.70
2023-04-05T12:37:50.652Z,7.90
2023-04-05T12:40:22.773Z,7.80
2023-04-05T12:42:49.919Z,7.60
2023-04-05T12:45:18.224Z,8.00
2023-04-05T12:47:58.649Z,8.20
2023-04-05T12:50:30.473Z,8.40
2023-04-05T12:53:04.852Z,8.40
2023-04-05T12:55:32.090Z,8.70
2023-04-05T12:58:03.617Z,8.80
2023-04-05T13:00:30.940Z,8.80
2023-04-05T13:10:25.922Z,8.80
2023-04-05T13:12:52.679Z,9.00
2023-04-05T13:15:19.632Z,9.00
2023-04-05T13:17:49.703Z,8.60
2023-04-05T13:20:18.308Z,8.50
2023-04-05T13:22:46.216Z,8.80
2023-04-05T13:25:13.541Z,8.90
2023-04-05T13:27:40.190Z,9.00
2023-04-05T13:30:07.612Z,8.90
2023-04-05T13:32:34.583Z,8.50
2023-04-05T13:35:01.654Z,9.00
2023-04-05T13:37:28.429Z,9.20
2023-04-05T13:39:55.138Z,9.20
2023-04-05T14:09:22.923Z,9.10
2023-04-05T14:11:49.717Z,11.90
2023-04-05T14:14:16.439Z,12.70
2023-04-05T14:16:43.299Z,12.20
2023-04-05T14:19:10.365Z,11.90
2023-04-05T14:21:37.248Z,12.20
2023-04-05T14:24:04.013Z,11.80
2023-04-05T14:31:27.736Z,12.10
2023-04-05T14:33:54.363Z,12.60
2023-04-05T14:36:21.302Z,12.60
2023-04-05T14:38:48.184Z,12.50
2023-04-05T14:41:14.960Z,12.70
2023-04-05T14:43:41.995Z,13.00
2023-04-05T14:46:08.714Z,13.20
2023-04-05T14:48:35.564Z,13.40
2023-04-05T14:51:02.457Z,13.50
2023-04-05T14:53:29.149Z,13.30
2023-04-05T14:55:55.786Z,13.10
2023-04-05T14:58:22.586Z,13.10
2023-04-05T15:00:50.656Z,13.00
2023-04-05T15:03:19.632Z,13.60
2023-04-05T15:05:47.255Z,13.20
2023-04-05T15:10:45.087Z,13.10
2023-04-05T15:13:12.844Z,14.90
2023-04-05T15:15:39.827Z,13.70
2023-04-05T15:18:08.118Z,14.40
2023-04-05T15:20:35.692Z,14.10
2023-04-05T15:23:02.701Z,14.50
2023-04-05T15:25:29.477Z,13.50
2023-04-05T15:27:59.086Z,13.50
2023-04-05T15:30:27.738Z,13.30
2023-04-05T15:40:17.121Z,12.90
2023-04-05T15:42:43.872Z,12.30
2023-04-05T15:45:11.207Z,12.00
2023-04-05T15:47:38.749Z,11.90
2023-04-05T15:50:06.431Z,12.10
2023-04-05T15:52:34.276Z,12.00
2023-04-05T15:55:01.167Z,11.80
2023-04-05T15:57:27.937Z,11.60
2023-04-05T15:59:54.811Z,11.10
2023-04-05T16:02:21.537Z,11.10
2023-04-05T16:04:48.457Z,11.20
2023-04-05T16:07:15.589Z,11.50
2023-04-05T16:09:42.313Z,11.00
2023-04-05T16:12:09.049Z,10.90
2023-04-05T16:14:35.792Z,10.60
2023-04-05T16:17:02.623Z,10.70
2023-04-05T16:19:29.386Z,10.80
2023-04-05T16:21:56.841Z,11.00
2023-04-05T16:24:23.613Z,11.00
2023-04-05T16:39:08.850Z,10.60
2023-04-05T17:01:18.686Z,10.30
2023-04-05T17:11:08.804Z,9.20
2023-04-05T17:18:29.720Z,8.20
2023-04-05T17:20:56.372Z,7.40
2023-04-05T17:23:24.459Z,7.10
2023-04-05T17:33:12.533Z,7.00
2023-04-05T17:35:39.210Z,6.50
2023-04-05T17:47:54.945Z,6.30
2023-04-05T18:22:22.300Z,5.70
2023-04-05T18:24:48.949Z,5.10
2023-04-05T18:27:15.582Z,5.20
2023-04-05T18:29:42.453Z,5.10
2023-04-05T18:32:09.660Z,5.00
2023-04-05T18:34:36.627Z,5.00
2023-04-05T18:37:03.300Z,5.00
2023-04-05T18:39:29.988Z,4.80
2023-04-05T18:41:56.611Z,4.80
2023-04-05T18:46:50.414Z,4.70
2023-04-05T19:06:32.770Z,4.50
2023-04-05T19:08:59.439Z,4.10
2023-04-05T19:11:26.247Z,3.90
2023-04-05T19:13:54.369Z,3.90
2023-04-05T19:16:21.152Z,3.80
2023-04-05T19:18:47.795Z,3.80
2023-04-05T19:21:14.478Z,3.70
2023-04-05T19:23:41.214Z,3.70
2023-04-05T19:26:07.846Z,3.60
2023-04-05T19:28:34.451Z,3.60
2023-04-05T19:31:01.122Z,3.50
2023-04-05T19:33:31.421Z,3.50
2023-04-05T19:35:58.788Z,3.40
2023-04-05T19:38:25.592Z,3.60
2023-04-05T19:40:52.803Z,3.70
2023-04-05T19:43:19.421Z,3.70
2023-04-05T19:45:48.437Z,3.60
2023-04-05T19:48:44.302Z,3.40
2023-04-05T19:51:14.018Z,3.10
2023-04-05T19:53:51.496Z,3.00
2023-04-05T19:56:21.766Z,2.80
2023-04-05T19:58:58.711Z,2.70
2023-04-05T20:01:36.911Z,2.70
2023-04-05T20:04:16.914Z,2.70
2023-04-05T20:06:51.261Z,2.60
2023-04-05T20:09:18.345Z,2.50
2023-04-05T20:11:51.911Z,2.50
2023-04-05T20:14:24.608Z,2.50
2023-04-05T20:16:51.316Z,2.50
2023-04-05T20:19:28.930Z,2.50
2023-04-05T20:22:01.279Z,2.40
2023-04-05T20:24:29.176Z,2.40
2023-04-05T20:26:56.826Z,2.50
2023-04-05T20:29:28.599Z,2.40
2023-04-05T20:31:55.592Z,2.40
2023-04-05T20:34:32.887Z,2.40
2023-04-05T20:37:03.161Z,2.40
2023-04-05T20:39:30.904Z,2.40
2023-04-05T20:41:58.117Z,2.30
2023-04-05T20:44:25.869Z,2.30
2023-04-05T20:46:54.604Z,2.20
2023-04-05T20:49:22.368Z,2.30
2023-04-05T20:51:50.601Z,2.30
2023-04-05T20:54:18.026Z,2.30
2023-04-05T20:56:46.485Z,2.30
2023-04-05T20:59:16.400Z,2.20
2023-04-05T21:01:51.764Z,2.20
2023-04-05T21:04:18.475Z,2.20
2023-04-05T21:06:45.622Z,2.20
2023-04-05T21:09:12.351Z,2.20
2023-04-05T21:11:38.983Z,2.30
2023-04-05T21:14:05.866Z,2.20
2023-04-05T21:41:03.780Z,2.10
2023-04-05T21:43:30.788Z,1.60
2023-04-05T21:45:57.469Z,1.50
2023-04-05T21:48:24.850Z,1.40
2023-04-05T21:50:51.759Z,1.40
2023-04-05T21:53:18.766Z,1.40
2023-04-05T21:55:45.616Z,1.30
2023-04-05T21:58:12.306Z,1.20
2023-04-05T22:00:38.956Z,1.20
2023-04-05T22:03:05.870Z,1.20
2023-04-05T22:05:37.867Z,1.10
2023-04-05T22:08:06.270Z,0.90
2023-04-05T22:15:27.688Z,0.90
2023-04-05T22:17:54.372Z,0.80
2023-04-05T22:20:21.056Z,0.80
2023-04-05T22:22:47.767Z,0.80
2023-04-05T22:25:14.445Z,0.80
2023-04-05T22:27:41.179Z,0.80
